Time;durP1;ratioP1;P1;durP2;ratioP2;P2;SDS_P1;SDS_P2;PMS_P1;PMS_P2;Temp;Humidity;BMP_temperature;BMP_pressure;BME280_temperature;BME280_humidity;BME280_pressure;Samples;Min_cycle;Max_cycle;Signal;HPM_P1;HPM_P2
2022/10/24 00:01:13;;;;;;;2.60;1.70;;;;;;;;;;5033529;28;20205;-86
2022/10/24 00:03:40;;;;;;;2.50;1.90;;;;;;;;;;5033222;28;20224;-86
2022/10/24 00:06:09;;;;;;;2.65;2.00;;;;;;;;;;5033693;28;20297;-86
2022/10/24 00:08:38;;;;;;;4.45;2.17;;;;;;;;;;5033171;28;20198;-87
2022/10/24 00:11:10;;;;;;;1.75;1.65;;;;;;;;;;5033399;28;20218;-86
2022/10/24 00:13:40;;;;;;;2.22;2.03;;;;;;;;;;5033526;28;20218;-86
2022/10/24 00:16:08;;;;;;;2.83;2.63;;;;;;;;;;5033703;28;20285;-86
2022/10/24 00:18:36;;;;;;;2.67;1.60;;;;;;;;;;5033013;28;20279;-87
2022/10/24 00:21:04;;;;;;;2.25;2.08;;;;;;;;;;5033141;28;20213;-87
2022/10/24 00:23:31;;;;;;;3.22;1.80;;;;;;;;;;5032801;28;20233;-87
2022/10/24 00:26:00;;;;;;;4.75;3.08;;;;;;;;;;5033119;28;20232;-86
2022/10/24 00:28:28;;;;;;;2.92;2.10;;;;;;;;;;5033262;28;20202;-87
2022/10/24 00:30:57;;;;;;;3.70;2.88;;;;;;;;;;5032880;28;20222;-87
2022/10/24 00:33:25;;;;;;;2.45;2.25;;;;;;;;;;5033343;28;20649;-87
2022/10/24 00:35:53;;;;;;;3.20;1.92;;;;;;;;;;5033627;28;20666;-86
2022/10/24 00:38:20;;;;;;;6.35;3.15;;;;;;;;;;5033359;28;20202;-86
2022/10/24 00:40:48;;;;;;;4.18;2.80;;;;;;;;;;5033043;28;20198;-86
2022/10/24 00:43:18;;;;;;;4.10;3.15;;;;;;;;;;5033003;28;20313;-87
2022/10/24 00:45:48;;;;;;;2.70;2.03;;;;;;;;;;5033051;28;20290;-87
2022/10/24 00:48:23;;;;;;;3.83;2.05;;;;;;;;;;5032890;28;20221;-86
2022/10/24 00:50:53;;;;;;;4.70;2.30;;;;;;;;;;5032952;28;20206;-87
2022/10/24 00:53:21;;;;;;;4.68;2.60;;;;;;;;;;5032624;28;20253;-87
2022/10/24 00:55:52;;;;;;;4.13;2.83;;;;;;;;;;5032799;28;20293;-86
2022/10/24 00:58:23;;;;;;;3.28;2.33;;;;;;;;;;5032716;28;20202;-86
2022/10/24 01:00:51;;;;;;;4.90;2.53;;;;;;;;;;5032715;28;20736;-86
2022/10/24 01:03:20;;;;;;;2.65;2.08;;;;;;;;;;5032824;28;20309;-87
2022/10/24 01:06:23;;;;;;;4.82;2.17;;;;;;;;;;5032319;28;20676;-87
2022/10/24 01:09:00;;;;;;;5.18;3.03;;;;;;;;;;5019583;28;20209;-87
2022/10/24 01:11:42;;;;;;;4.93;2.20;;;;;;;;;;5032760;28;20202;-87
2022/10/24 01:14:19;;;;;;;2.40;2.20;;;;;;;;;;5033732;28;20238;-88
2022/10/24 01:16:50;;;;;;;4.07;2.67;;;;;;;;;;5036718;28;20196;-87
2022/10/24 01:19:53;;;;;;;4.97;3.45;;;;;;;;;;5036660;28;20187;-87
2022/10/24 01:22:22;;;;;;;2.83;2.20;;;;;;;;;;5036813;28;20229;-86
2022/10/24 01:25:06;;;;;;;6.18;2.38;;;;;;;;;;5036249;28;20230;-88
2022/10/24 01:28:01;;;;;;;3.50;2.20;;;;;;;;;;5036579;28;20650;-87
2022/10/24 01:30:33;;;;;;;1.95;1.67;;;;;;;;;;5036708;28;20194;-86
2022/10/24 01:33:03;;;;;;;3.42;2.22;;;;;;;;;;5036529;28;20600;-87
2022/10/24 01:35:39;;;;;;;3.17;2.30;;;;;;;;;;5036870;28;20198;-85
2022/10/24 01:38:14;;;;;;;6.65;3.58;;;;;;;;;;5036605;28;20210;-85
2022/10/24 01:40:50;;;;;;;5.22;2.70;;;;;;;;;;5036941;28;20193;-86
2022/10/24 01:43:22;;;;;;;2.25;2.05;;;;;;;;;;5036388;28;20231;-86
2022/10/24 01:45:56;;;;;;;2.88;2.42;;;;;;;;;;5036176;28;20754;-86
2022/10/24 01:48:36;;;;;;;3.05;2.30;;;;;;;;;;5036637;28;20279;-86
2022/10/24 01:51:04;;;;;;;3.70;2.13;;;;;;;;;;5036742;28;20635;-86
2022/10/24 01:53:32;;;;;;;4.45;2.42;;;;;;;;;;5036372;28;20222;-86
2022/10/24 01:56:00;;;;;;;2.83;2.63;;;;;;;;;;5036411;28;20576;-87
2022/10/24 01:58:28;;;;;;;3.08;1.90;;;;;;;;;;5036147;28;20292;-87
2022/10/24 02:01:01;;;;;;;4.03;2.42;;;;;;;;;;5036276;28;20285;-86
2022/10/24 02:03:34;;;;;;;2.72;2.53;;;;;;;;;;5036960;28;20228;-86
2022/10/24 02:06:06;;;;;;;4.15;2.70;;;;;;;;;;5036408;28;20681;-86
2022/10/24 02:08:36;;;;;;;4.60;2.42;;;;;;;;;;5036658;28;20187;-86
2022/10/24 02:11:05;;;;;;;3.72;2.15;;;;;;;;;;5036025;28;20212;-86
2022/10/24 02:13:37;;;;;;;3.80;2.28;;;;;;;;;;5036304;28;20591;-86
2022/10/24 02:16:07;;;;;;;2.95;1.90;;;;;;;;;;5035903;28;20288;-87
2022/10/24 02:18:35;;;;;;;1.70;1.60;;;;;;;;;;5035535;28;20287;-86
2022/10/24 02:21:18;;;;;;;5.13;3.25;;;;;;;;;;5035906;28;20293;-86
2022/10/24 02:26:18;;;;;;;2.67;2.10;;;;;;;;;;5036451;28;20206;-84
2022/10/24 02:28:48;;;;;;;2.33;2.13;;;;;;;;;;5038916;28;20286;-86
2022/10/24 02:31:21;;;;;;;3.20;2.05;;;;;;;;;;5038948;28;20269;-85
2022/10/24 02:33:50;;;;;;;2.90;2.05;;;;;;;;;;5039298;28;20223;-85
2022/10/24 02:36:21;;;;;;;5.05;2.10;;;;;;;;;;5037241;28;20226;-86
2022/10/24 02:38:49;;;;;;;2.85;1.88;;;;;;;;;;5038790;28;20195;-85
2022/10/24 02:41:21;;;;;;;3.05;2.38;;;;;;;;;;5038740;28;20289;-85
2022/10/24 02:43:50;;;;;;;3.35;2.20;;;;;;;;;;5037944;28;20693;-85
2022/10/24 02:46:20;;;;;;;3.15;1.58;;;;;;;;;;5036908;28;20561;-85
2022/10/24 02:48:50;;;;;;;6.63;2.30;;;;;;;;;;5037528;28;20226;-86
2022/10/24 02:51:19;;;;;;;3.75;1.98;;;;;;;;;;5038027;28;20258;-84
2022/10/24 02:53:47;;;;;;;2.70;1.88;;;;;;;;;;5039007;28;20269;-84
2022/10/24 02:56:14;;;;;;;2.58;1.83;;;;;;;;;;5038917;28;20282;-85
2022/10/24 02:58:42;;;;;;;4.25;2.55;;;;;;;;;;5037287;28;20297;-83
2022/10/24 03:01:09;;;;;;;4.63;2.45;;;;;;;;;;5037895;28;20206;-84
2022/10/24 03:03:38;;;;;;;3.67;2.13;;;;;;;;;;5037323;28;20290;-85
2022/10/24 03:06:07;;;;;;;2.95;1.95;;;;;;;;;;5029217;28;20236;-85
2022/10/24 03:08:34;;;;;;;1.83;1.70;;;;;;;;;;5016896;28;20209;-85
2022/10/24 03:11:02;;;;;;;2.22;2.00;;;;;;;;;;5018810;28;20218;-85
2022/10/24 03:13:29;;;;;;;3.10;2.25;;;;;;;;;;5017852;28;20295;-85
2022/10/24 03:15:57;;;;;;;3.30;2.15;;;;;;;;;;5017054;28;20649;-85
2022/10/24 03:18:24;;;;;;;4.07;3.10;;;;;;;;;;5016986;28;20230;-84
2022/10/24 03:20:53;;;;;;;3.67;2.53;;;;;;;;;;5016876;28;20199;-83
2022/10/24 03:23:21;;;;;;;3.90;2.42;;;;;;;;;;5016056;28;20646;-85
2022/10/24 03:25:48;;;;;;;10.50;3.75;;;;;;;;;;5016252;28;20211;-85
2022/10/24 03:28:16;;;;;;;5.90;2.90;;;;;;;;;;5018167;28;20718;-84
2022/10/24 03:30:43;;;;;;;5.43;2.60;;;;;;;;;;5018301;28;20306;-85
2022/10/24 03:33:10;;;;;;;2.92;2.35;;;;;;;;;;5018863;28;20238;-85
2022/10/24 03:35:38;;;;;;;3.35;2.13;;;;;;;;;;5022633;28;20316;-83
2022/10/24 03:38:07;;;;;;;3.97;2.22;;;;;;;;;;5036627;28;20237;-85
2022/10/24 03:40:35;;;;;;;2.90;1.77;;;;;;;;;;5036202;28;20217;-84
2022/10/24 03:43:02;;;;;;;3.55;2.40;;;;;;;;;;5034918;28;20332;-84
2022/10/24 03:45:30;;;;;;;3.60;2.13;;;;;;;;;;5036620;28;20308;-86
2022/10/24 03:47:57;;;;;;;4.78;2.20;;;;;;;;;;5036927;28;20217;-85
2022/10/24 03:50:25;;;;;;;3.38;1.52;;;;;;;;;;5035193;28;20285;-84
2022/10/24 03:52:52;;;;;;;3.45;2.20;;;;;;;;;;5036054;28;20237;-84
2022/10/24 03:55:21;;;;;;;2.10;1.90;;;;;;;;;;5037744;28;20249;-85
2022/10/24 03:57:49;;;;;;;2.45;1.75;;;;;;;;;;5037442;28;20203;-85
2022/10/24 04:00:18;;;;;;;3.53;2.10;;;;;;;;;;5036366;28;20281;-86
2022/10/24 04:02:46;;;;;;;3.88;1.88;;;;;;;;;;5035593;28;20659;-85
2022/10/24 04:05:14;;;;;;;2.58;1.65;;;;;;;;;;5036186;28;20222;-85
2022/10/24 04:07:41;;;;;;;4.68;1.92;;;;;;;;;;5036214;28;20281;-86
2022/10/24 04:10:10;;;;;;;8.70;1.85;;;;;;;;;;5036006;28;20230;-86
2022/10/24 04:12:38;;;;;;;3.13;1.83;;;;;;;;;;5036231;28;20304;-85
2022/10/24 04:15:07;;;;;;;4.13;1.90;;;;;;;;;;5035450;28;20297;-85
2022/10/24 04:17:35;;;;;;;2.35;1.83;;;;;;;;;;5035913;28;20213;-86
2022/10/24 04:20:02;;;;;;;2.63;1.90;;;;;;;;;;5035003;28;20284;-84
2022/10/24 04:22:30;;;;;;;4.22;2.00;;;;;;;;;;5036268;28;20202;-85
2022/10/24 04:24:57;;;;;;;3.78;2.58;;;;;;;;;;5035241;28;20317;-85
2022/10/24 04:27:25;;;;;;;8.45;2.78;;;;;;;;;;5036645;28;20234;-84
2022/10/24 04:29:53;;;;;;;3.05;2.03;;;;;;;;;;5033941;28;20289;-84
2022/10/24 04:32:21;;;;;;;2.30;1.75;;;;;;;;;;5036108;28;20218;-86
2022/10/24 04:34:48;;;;;;;2.45;1.80;;;;;;;;;;5036022;28;20224;-85
2022/10/24 04:37:16;;;;;;;3.85;1.80;;;;;;;;;;5036171;28;20302;-84
2022/10/24 04:39:43;;;;;;;3.53;2.95;;;;;;;;;;5034792;28;20289;-85
2022/10/24 04:42:11;;;;;;;4.25;2.75;;;;;;;;;;5036033;28;20293;-85
2022/10/24 04:44:38;;;;;;;4.68;2.22;;;;;;;;;;5034150;28;20734;-84
2022/10/24 04:47:07;;;;;;;3.53;2.97;;;;;;;;;;5035013;28;20301;-85
2022/10/24 04:49:35;;;;;;;2.20;1.88;;;;;;;;;;5035599;28;20285;-85
2022/10/24 04:52:02;;;;;;;3.00;1.80;;;;;;;;;;5040393;28;21096;-85
2022/10/24 04:54:30;;;;;;;5.03;2.40;;;;;;;;;;5035494;28;20226;-85
2022/10/24 04:56:57;;;;;;;6.80;2.88;;;;;;;;;;5034800;28;20202;-83
2022/10/24 04:59:24;;;;;;;3.30;2.10;;;;;;;;;;5034071;28;20270;-84
2022/10/24 05:01:53;;;;;;;3.25;2.15;;;;;;;;;;5035562;28;20289;-85
2022/10/24 05:04:22;;;;;;;4.38;2.50;;;;;;;;;;5034253;28;20226;-84
2022/10/24 05:06:49;;;;;;;4.95;2.60;;;;;;;;;;5033673;28;20289;-84
2022/10/24 05:09:17;;;;;;;4.35;1.88;;;;;;;;;;5034015;28;20198;-84
2022/10/24 05:11:45;;;;;;;4.78;2.70;;;;;;;;;;5035080;28;20212;-86
2022/10/24 05:14:13;;;;;;;4.18;2.10;;;;;;;;;;5034767;28;20234;-84
2022/10/24 05:16:40;;;;;;;5.93;3.30;;;;;;;;;;5034832;28;20202;-85
2022/10/24 05:19:07;;;;;;;4.22;1.92;;;;;;;;;;5034165;28;20289;-85
2022/10/24 05:21:36;;;;;;;2.90;1.80;;;;;;;;;;5034875;28;20212;-82
2022/10/24 05:24:04;;;;;;;2.58;2.08;;;;;;;;;;5034809;28;20668;-84
2022/10/24 05:26:31;;;;;;;2.95;1.90;;;;;;;;;;5034172;28;20209;-83
2022/10/24 05:28:59;;;;;;;4.97;2.80;;;;;;;;;;5034025;28;20281;-86
2022/10/24 05:31:26;;;;;;;2.50;1.65;;;;;;;;;;5033799;28;20206;-84
2022/10/24 05:33:54;;;;;;;3.30;2.28;;;;;;;;;;5033226;28;20666;-84
2022/10/24 05:36:21;;;;;;;5.38;2.42;;;;;;;;;;5033811;28;20206;-85
2022/10/24 05:38:50;;;;;;;2.88;2.50;;;;;;;;;;5033450;28;20285;-83
2022/10/24 05:41:17;;;;;;;3.90;2.20;;;;;;;;;;5033034;28;20208;-81
2022/10/24 05:43:45;;;;;;;2.70;2.40;;;;;;;;;;5031982;28;20219;-82
2022/10/24 05:46:12;;;;;;;2.92;1.90;;;;;;;;;;5034573;28;20288;-81
2022/10/24 05:48:40;;;;;;;4.80;2.35;;;;;;;;;;5033935;28;20289;-81
2022/10/24 05:51:07;;;;;;;3.20;1.60;;;;;;;;;;5034511;28;20580;-81
2022/10/24 05:53:35;;;;;;;3.08;1.65;;;;;;;;;;5034798;28;20313;-80
2022/10/24 05:56:04;;;;;;;3.10;1.83;;;;;;;;;;5033335;28;20215;-80
2022/10/24 05:58:32;;;;;;;4.15;2.40;;;;;;;;;;5033931;28;20232;-80
2022/10/24 06:00:59;;;;;;;6.18;2.25;;;;;;;;;;5035850;28;20285;-80
2022/10/24 06:03:27;;;;;;;7.78;2.20;;;;;;;;;;5038130;28;20649;-81
2022/10/24 06:05:55;;;;;;;6.88;3.58;;;;;;;;;;5036863;28;20652;-80
2022/10/24 06:08:23;;;;;;;3.30;1.75;;;;;;;;;;5036083;28;20206;-80
2022/10/24 06:10:52;;;;;;;3.67;2.42;;;;;;;;;;5035825;28;20224;-79
2022/10/24 06:13:21;;;;;;;2.63;2.25;;;;;;;;;;5036460;28;20256;-79
2022/10/24 06:15:48;;;;;;;2.92;2.00;;;;;;;;;;5037213;28;20285;-80
2022/10/24 06:18:16;;;;;;;5.18;2.10;;;;;;;;;;5036328;28;20202;-80
2022/10/24 06:20:43;;;;;;;3.40;2.30;;;;;;;;;;5036179;28;20210;-80
2022/10/24 06:23:10;;;;;;;5.55;3.20;;;;;;;;;;5038505;28;20484;-80
2022/10/24 06:25:40;;;;;;;4.30;1.92;;;;;;;;;;5035642;28;20223;-79
2022/10/24 06:28:08;;;;;;;4.57;2.38;;;;;;;;;;5036366;28;20229;-81
2022/10/24 06:30:39;;;;;;;3.67;2.80;;;;;;;;;;5038239;28;20202;-81
2022/10/24 06:33:06;;;;;;;4.20;2.17;;;;;;;;;;5037440;28;20679;-80
2022/10/24 06:35:34;;;;;;;3.08;1.67;;;;;;;;;;5035894;28;20320;-80
2022/10/24 06:38:01;;;;;;;4.72;2.28;;;;;;;;;;5036190;28;20305;-80
2022/10/24 06:40:28;;;;;;;9.38;3.08;;;;;;;;;;5036458;28;20580;-80
2022/10/24 06:42:57;;;;;;;3.70;2.20;;;;;;;;;;5037043;28;20753;-80
2022/10/24 06:45:24;;;;;;;4.75;2.72;;;;;;;;;;5036118;28;20222;-80
2022/10/24 06:47:53;;;;;;;7.20;2.92;;;;;;;;;;5036769;28;20202;-80
2022/10/24 06:50:21;;;;;;;3.40;2.13;;;;;;;;;;5036407;28;20285;-80
2022/10/24 06:52:48;;;;;;;4.28;2.55;;;;;;;;;;5032853;28;20282;-80
2022/10/24 06:55:16;;;;;;;2.35;1.80;;;;;;;;;;5038055;28;20294;-80
2022/10/24 06:57:43;;;;;;;2.78;2.03;;;;;;;;;;5035945;28;20781;-81
2022/10/24 07:00:13;;;;;;;4.57;1.98;;;;;;;;;;5036081;28;20198;-81
2022/10/24 07:02:41;;;;;;;2.40;1.90;;;;;;;;;;5035746;28;20206;-81
2022/10/24 07:05:11;;;;;;;4.53;2.88;;;;;;;;;;5036103;28;20305;-80
2022/10/24 07:07:40;;;;;;;6.97;2.42;;;;;;;;;;5036354;28;20589;-80
2022/10/24 07:10:10;;;;;;;9.98;2.88;;;;;;;;;;5035408;28;20234;-81
2022/10/24 07:12:37;;;;;;;4.18;2.05;;;;;;;;;;5034669;28;20683;-80
2022/10/24 07:15:06;;;;;;;4.47;3.28;;;;;;;;;;5034635;28;20313;-79
2022/10/24 07:17:39;;;;;;;3.70;2.40;;;;;;;;;;5034054;28;20264;-79
2022/10/24 07:20:10;;;;;;;5.85;2.30;;;;;;;;;;5034448;28;20240;-79
2022/10/24 07:22:38;;;;;;;4.03;2.22;;;;;;;;;;5034549;28;20198;-80
2022/10/24 07:25:07;;;;;;;3.75;2.00;;;;;;;;;;5034385;28;20232;-80
2022/10/24 07:27:34;;;;;;;5.03;2.10;;;;;;;;;;5034309;28;20855;-80
2022/10/24 07:30:02;;;;;;;6.10;1.80;;;;;;;;;;5034424;28;20292;-80
2022/10/24 07:32:29;;;;;;;3.65;2.30;;;;;;;;;;5033836;28;20212;-80
2022/10/24 07:34:58;;;;;;;3.53;2.58;;;;;;;;;;5033769;28;20261;-80
2022/10/24 07:37:28;;;;;;;3.67;2.42;;;;;;;;;;5033719;28;20292;-79
2022/10/24 07:39:55;;;;;;;4.00;1.75;;;;;;;;;;5033566;28;20290;-78
2022/10/24 07:42:22;;;;;;;4.45;2.05;;;;;;;;;;5033238;28;20297;-79
2022/10/24 07:44:50;;;;;;;7.22;2.80;;;;;;;;;;5033014;28;20218;-79
2022/10/24 07:47:17;;;;;;;5.35;2.00;;;;;;;;;;5033681;28;20213;-78
2022/10/24 07:49:45;;;;;;;5.90;2.10;;;;;;;;;;5033223;28;20210;-79
2022/10/24 07:52:12;;;;;;;2.90;1.88;;;;;;;;;;5033502;28;20212;-79
2022/10/24 07:54:41;;;;;;;6.10;2.90;;;;;;;;;;5033664;28;20230;-80
2022/10/24 07:57:08;;;;;;;3.20;2.10;;;;;;;;;;5033760;28;20202;-80
2022/10/24 07:59:36;;;;;;;3.65;2.95;;;;;;;;;;5034865;28;20643;-80
2022/10/24 08:02:03;;;;;;;2.75;1.80;;;;;;;;;;5034597;28;20685;-80
2022/10/24 08:04:31;;;;;;;3.78;2.00;;;;;;;;;;5033119;28;20222;-79
2022/10/24 08:06:59;;;;;;;4.85;2.10;;;;;;;;;;5033163;28;20211;-80
2022/10/24 08:09:26;;;;;;;4.60;2.20;;;;;;;;;;5033301;28;20199;-80
2022/10/24 08:11:55;;;;;;;4.93;1.90;;;;;;;;;;5031432;28;20207;-79
2022/10/24 08:14:22;;;;;;;4.70;2.10;;;;;;;;;;5032628;28;20313;-82
2022/10/24 08:16:50;;;;;;;3.25;2.03;;;;;;;;;;5032867;28;20229;-82
2022/10/24 08:19:17;;;;;;;3.83;1.90;;;;;;;;;;5033549;28;20208;-81
2022/10/24 08:21:45;;;;;;;6.18;2.42;;;;;;;;;;5033296;28;20208;-81
2022/10/24 08:24:16;;;;;;;3.55;2.33;;;;;;;;;;5056865;22;20313;-83
2022/10/24 08:26:51;;;;;;;11.18;3.30;;;;;;;;;;5038622;28;20198;-84
2022/10/24 08:32:32;;;;;;;2.15;1.80;;;;;;;;;;5031506;28;20237;-86
2022/10/24 08:35:12;;;;;;;2.95;2.00;;;;;;;;;;5033529;28;20265;-85
2022/10/24 08:38:01;;;;;;;4.13;1.88;;;;;;;;;;5031001;28;20218;-84
2022/10/24 08:40:35;;;;;;;5.15;2.08;;;;;;;;;;5035403;28;20276;-86
2022/10/24 08:43:03;;;;;;;8.95;3.45;;;;;;;;;;5034686;28;20213;-87
2022/10/24 08:45:38;;;;;;;7.68;2.53;;;;;;;;;;5034035;28;20289;-85
2022/10/24 08:48:08;;;;;;;2.72;1.98;;;;;;;;;;5035688;28;20208;-86
2022/10/24 08:50:37;;;;;;;4.22;2.67;;;;;;;;;;5035100;28;20682;-86
2022/10/24 08:53:09;;;;;;;2.97;1.80;;;;;;;;;;5033292;28;20206;-85
2022/10/24 08:55:40;;;;;;;6.15;3.85;;;;;;;;;;5033390;28;20226;-86
2022/10/24 08:58:15;;;;;;;5.65;2.03;;;;;;;;;;5033812;28;20213;-85
2022/10/24 09:00:48;;;;;;;6.43;3.42;;;;;;;;;;5035296;28;20271;-86
2022/10/24 09:03:20;;;;;;;3.67;2.55;;;;;;;;;;5035310;28;20187;-86
2022/10/24 09:05:50;;;;;;;6.80;2.85;;;;;;;;;;5034594;28;20230;-86
2022/10/24 09:08:24;;;;;;;3.15;1.65;;;;;;;;;;5034422;28;20662;-86
2022/10/24 09:10:57;;;;;;;6.10;2.22;;;;;;;;;;5034085;28;20276;-85
2022/10/24 09:13:29;;;;;;;5.13;2.17;;;;;;;;;;5034226;28;20648;-86
2022/10/24 09:15:58;;;;;;;8.57;2.38;;;;;;;;;;5033740;28;20221;-85
2022/10/24 09:18:29;;;;;;;5.28;2.30;;;;;;;;;;5034687;28;20193;-86
2022/10/24 09:20:56;;;;;;;3.22;2.05;;;;;;;;;;5033275;28;20254;-85
2022/10/24 09:23:25;;;;;;;5.60;2.13;;;;;;;;;;5034923;28;20210;-85
2022/10/24 09:25:55;;;;;;;4.38;3.10;;;;;;;;;;5034129;28;20270;-85
2022/10/24 09:28:23;;;;;;;3.85;2.25;;;;;;;;;;5034831;28;20547;-85
2022/10/24 09:30:51;;;;;;;4.13;1.98;;;;;;;;;;5034204;28;20226;-85
2022/10/24 09:33:29;;;;;;;5.50;2.30;;;;;;;;;;5033615;28;20574;-85
2022/10/24 09:35:59;;;;;;;1.83;1.73;;;;;;;;;;5035059;28;20293;-85
2022/10/24 09:38:33;;;;;;;3.00;2.00;;;;;;;;;;5038018;28;20217;-85
2022/10/24 09:41:04;;;;;;;5.60;2.33;;;;;;;;;;5037368;28;20649;-85
2022/10/24 09:43:39;;;;;;;3.15;1.60;;;;;;;;;;5037481;28;20202;-85
2022/10/24 09:46:09;;;;;;;3.83;1.85;;;;;;;;;;5037392;28;20189;-86
2022/10/24 09:48:51;;;;;;;3.58;2.20;;;;;;;;;;5036203;28;20299;-85
2022/10/24 09:51:24;;;;;;;2.80;2.05;;;;;;;;;;5034912;28;20292;-86
2022/10/24 09:54:10;;;;;;;2.53;2.30;;;;;;;;;;5035853;28;20289;-85
2022/10/24 09:56:40;;;;;;;4.30;2.08;;;;;;;;;;5035461;28;20210;-87
2022/10/24 09:59:35;;;;;;;4.45;1.80;;;;;;;;;;5035295;28;20194;-86
2022/10/24 10:02:23;;;;;;;2.42;1.80;;;;;;;;;;5036989;28;20237;-85
2022/10/24 10:05:21;;;;;;;2.75;1.60;;;;;;;;;;5036446;28;20206;-85
2022/10/24 10:07:50;;;;;;;3.05;1.60;;;;;;;;;;5036654;28;20190;-85
2022/10/24 10:10:33;;;;;;;5.63;2.83;;;;;;;;;;5038629;28;20206;-83
2022/10/24 10:13:10;;;;;;;4.63;2.10;;;;;;;;;;5039089;28;20246;-85
2022/10/24 10:15:44;;;;;;;3.60;1.80;;;;;;;;;;5038239;28;20209;-86
2022/10/24 10:18:25;;;;;;;4.82;2.03;;;;;;;;;;5037307;28;20249;-85
2022/10/24 10:21:08;;;;;;;2.85;1.80;;;;;;;;;;5038328;28;20301;-85
2022/10/24 10:26:26;;;;;;;3.20;1.95;;;;;;;;;;5132828;27;21125;-84
2022/10/24 10:29:01;;;;;;;3.83;1.88;;;;;;;;;;5131744;27;20191;-85
2022/10/24 10:31:38;;;;;;;6.10;2.53;;;;;;;;;;5132703;28;20224;-84
2022/10/24 10:34:22;;;;;;;2.90;1.92;;;;;;;;;;5136144;28;20179;-83
2022/10/24 10:37:25;;;;;;;2.58;2.38;;;;;;;;;;5149111;27;20190;-84
2022/10/24 10:40:11;;;;;;;4.15;1.60;;;;;;;;;;5119806;27;20694;-83
2022/10/24 10:42:50;;;;;;;3.13;1.75;;;;;;;;;;5153058;27;20218;-84
2022/10/24 10:45:28;;;;;;;4.40;1.70;;;;;;;;;;5152363;27;20218;-85
2022/10/24 10:48:02;;;;;;;4.68;1.92;;;;;;;;;;5151703;27;20221;-85
2022/10/24 10:50:37;;;;;;;1.98;1.52;;;;;;;;;;5151776;27;20724;-86
2022/10/24 10:53:22;;;;;;;2.60;1.75;;;;;;;;;;5152372;27;20266;-86
2022/10/24 10:55:56;;;;;;;2.70;1.50;;;;;;;;;;5151679;27;20204;-87
2022/10/24 10:58:34;;;;;;;2.65;1.63;;;;;;;;;;5151724;27;20608;-87
2022/10/24 11:01:09;;;;;;;1.98;1.70;;;;;;;;;;5151406;27;20248;-86
2022/10/24 11:03:45;;;;;;;3.88;2.38;;;;;;;;;;5151859;27;20178;-87
2022/10/24 11:06:25;;;;;;;2.38;1.60;;;;;;;;;;5151159;27;20270;-86
2022/10/24 11:09:30;;;;;;;3.17;1.90;;;;;;;;;;5151547;27;20182;-87
2022/10/24 11:12:07;;;;;;;2.75;1.50;;;;;;;;;;5148833;27;20275;-85
2022/10/24 11:14:39;;;;;;;2.15;1.50;;;;;;;;;;5151212;27;20593;-85
2022/10/24 11:17:14;;;;;;;3.78;1.50;;;;;;;;;;5151530;27;20287;-83
2022/10/24 11:19:50;;;;;;;2.38;1.58;;;;;;;;;;5151160;27;20206;-84
2022/10/24 11:22:23;;;;;;;4.18;1.98;;;;;;;;;;5151862;27;20214;-85
2022/10/24 11:24:58;;;;;;;3.53;1.48;;;;;;;;;;5150875;27;20220;-84
2022/10/24 11:27:31;;;;;;;1.95;1.58;;;;;;;;;;5151143;27;20198;-85
2022/10/24 11:30:08;;;;;;;2.10;1.90;;;;;;;;;;5150411;27;20205;-85
2022/10/24 11:32:41;;;;;;;1.58;1.27;;;;;;;;;;5150107;27;20221;-85
2022/10/24 11:35:21;;;;;;;1.65;1.55;;;;;;;;;;5150393;27;20717;-86
2022/10/24 11:37:52;;;;;;;3.25;1.58;;;;;;;;;;5135694;27;20179;-84
2022/10/24 11:40:23;;;;;;;2.92;1.85;;;;;;;;;;5136491;27;20285;-86
2022/10/24 11:42:56;;;;;;;3.80;1.60;;;;;;;;;;5136917;27;20259;-86
2022/10/24 11:45:28;;;;;;;2.42;1.30;;;;;;;;;;5137541;27;20302;-84
2022/10/24 11:48:05;;;;;;;2.75;1.50;;;;;;;;;;5137206;27;20243;-86
2022/10/24 11:50:38;;;;;;;1.73;1.48;;;;;;;;;;5137253;27;20226;-85
2022/10/24 11:53:20;;;;;;;1.30;1.00;;;;;;;;;;5136294;27;20269;-85
2022/10/24 11:55:53;;;;;;;2.05;1.60;;;;;;;;;;5135794;27;20244;-86
2022/10/24 11:58:23;;;;;;;2.00;1.80;;;;;;;;;;5136188;27;20209;-86
2022/10/24 12:01:20;;;;;;;5.78;1.65;;;;;;;;;;5136545;27;20242;-85
2022/10/24 12:04:27;;;;;;;2.78;1.67;;;;;;;;;;5136353;27;20278;-84
2022/10/24 12:07:32;;;;;;;3.13;1.50;;;;;;;;;;5103962;27;20231;-85
2022/10/24 12:10:31;;;;;;;3.55;1.92;;;;;;;;;;5095534;28;20176;-85
2022/10/24 12:13:26;;;;;;;1.85;1.33;;;;;;;;;;5095036;28;20181;-86
2022/10/24 12:16:02;;;;;;;1.48;1.17;;;;;;;;;;5095464;28;20617;-83
2022/10/24 12:18:32;;;;;;;1.38;1.23;;;;;;;;;;5094480;28;20284;-85
2022/10/24 12:21:05;;;;;;;1.95;1.17;;;;;;;;;;5096043;28;20255;-85
2022/10/24 12:23:33;;;;;;;2.70;1.30;;;;;;;;;;5095324;28;20736;-85
2022/10/24 12:26:06;;;;;;;1.65;1.23;;;;;;;;;;5094593;28;20243;-87
2022/10/24 12:28:34;;;;;;;2.22;1.50;;;;;;;;;;5095130;28;20212;-85
2022/10/24 12:31:20;;;;;;;3.35;2.35;;;;;;;;;;5094310;28;20315;-85
2022/10/24 12:37:35;;;;;;;6.50;2.45;;;;;;;;;;5094537;28;20216;-85
2022/10/24 12:40:46;;;;;;;3.72;1.40;;;;;;;;;;5094331;28;20181;-86
2022/10/24 12:43:29;;;;;;;2.70;1.50;;;;;;;;;;5094798;28;20296;-85
2022/10/24 12:46:00;;;;;;;4.95;2.13;;;;;;;;;;5094790;28;20327;-86
2022/10/24 12:48:36;;;;;;;2.55;1.55;;;;;;;;;;5093514;28;20708;-85
2022/10/24 12:51:28;;;;;;;3.75;1.85;;;;;;;;;;5094825;28;20878;-86
2022/10/24 12:54:15;;;;;;;6.40;1.45;;;;;;;;;;5094249;28;20220;-85
2022/10/24 12:57:19;;;;;;;3.40;1.48;;;;;;;;;;5094691;28;20299;-85
2022/10/24 12:59:48;;;;;;;1.33;0.95;;;;;;;;;;5096385;28;20211;-85
2022/10/24 13:02:47;;;;;;;2.38;1.27;;;;;;;;;;5094774;28;20252;-85
2022/10/24 13:05:39;;;;;;;2.25;1.33;;;;;;;;;;5094571;28;20204;-87
2022/10/24 13:08:23;;;;;;;2.08;0.77;;;;;;;;;;5094577;28;20224;-87
2022/10/24 13:11:03;;;;;;;1.40;1.00;;;;;;;;;;5094078;28;20220;-86
2022/10/24 13:14:00;;;;;;;2.75;1.20;;;;;;;;;;5094812;28;20250;-86
2022/10/24 13:16:36;;;;;;;1.10;1.00;;;;;;;;;;5093785;28;20234;-86
2022/10/24 13:19:15;;;;;;;2.45;1.40;;;;;;;;;;5094763;28;20211;-85
2022/10/24 13:21:49;;;;;;;1.25;1.15;;;;;;;;;;5096443;28;20723;-85
2022/10/24 13:24:29;;;;;;;1.20;1.20;;;;;;;;;;5097344;28;20200;-84
2022/10/24 13:27:31;;;;;;;1.95;1.02;;;;;;;;;;5095609;28;20208;-85
2022/10/24 13:30:32;;;;;;;2.65;1.27;;;;;;;;;;5088839;28;20702;-84
2022/10/24 13:33:40;;;;;;;2.53;1.27;;;;;;;;;;5079429;28;20226;-85
2022/10/24 13:36:16;;;;;;;1.70;1.00;;;;;;;;;;5113693;27;20203;-85
2022/10/24 13:38:49;;;;;;;3.10;1.20;;;;;;;;;;5114738;28;20651;-87
2022/10/24 13:41:25;;;;;;;1.17;1.08;;;;;;;;;;5114236;28;20310;-87
2022/10/24 13:43:55;;;;;;;1.95;0.90;;;;;;;;;;5115488;28;20846;-85
2022/10/24 13:46:28;;;;;;;2.60;1.38;;;;;;;;;;5115523;28;20261;-87
2022/10/24 13:48:58;;;;;;;1.17;0.95;;;;;;;;;;5114464;28;20184;-85
2022/10/24 13:51:32;;;;;;;1.98;1.15;;;;;;;;;;5115253;28;20549;-86
2022/10/24 13:54:06;;;;;;;1.90;0.88;;;;;;;;;;5114765;28;20241;-86
2022/10/24 13:56:38;;;;;;;2.72;1.17;;;;;;;;;;5114959;28;20230;-86
2022/10/24 13:59:25;;;;;;;1.20;1.10;;;;;;;;;;5114585;28;20172;-85
2022/10/24 14:01:52;;;;;;;1.55;1.08;;;;;;;;;;5114582;28;20749;-86
2022/10/24 14:04:20;;;;;;;1.95;1.30;;;;;;;;;;5114654;28;20203;-85
2022/10/24 14:06:47;;;;;;;1.67;0.95;;;;;;;;;;5128906;27;20778;-86
2022/10/24 14:09:16;;;;;;;1.55;1.20;;;;;;;;;;5135061;27;20219;-85
2022/10/24 14:11:46;;;;;;;0.90;0.90;;;;;;;;;;5135753;27;20335;-85
2022/10/24 14:14:32;;;;;;;1.30;0.98;;;;;;;;;;5135532;27;20200;-85
2022/10/24 14:17:20;;;;;;;0.95;0.93;;;;;;;;;;5136402;27;20269;-84
2022/10/24 14:19:53;;;;;;;2.15;0.80;;;;;;;;;;5136102;27;20199;-84
2022/10/24 14:22:23;;;;;;;2.05;0.90;;;;;;;;;;5135446;27;20250;-83
2022/10/24 14:24:52;;;;;;;1.05;1.05;;;;;;;;;;5135782;28;20627;-83
2022/10/24 14:27:20;;;;;;;1.10;0.98;;;;;;;;;;5136040;27;20262;-86
2022/10/24 14:30:00;;;;;;;1.50;1.00;;;;;;;;;;5135925;28;20209;-84
2022/10/24 14:32:30;;;;;;;2.22;1.13;;;;;;;;;;5136408;28;20305;-85
2022/10/24 14:34:58;;;;;;;3.88;1.05;;;;;;;;;;5135291;28;20627;-83
2022/10/24 14:37:34;;;;;;;1.25;0.80;;;;;;;;;;5135399;28;20289;-85
2022/10/24 14:40:04;;;;;;;1.00;0.90;;;;;;;;;;5135254;28;20175;-85
2022/10/24 14:42:32;;;;;;;2.38;1.08;;;;;;;;;;5136000;28;20211;-84
2022/10/24 14:45:00;;;;;;;3.70;2.45;;;;;;;;;;5135434;28;20199;-84
2022/10/24 14:47:31;;;;;;;3.75;2.17;;;;;;;;;;5135733;28;20305;-84
2022/10/24 14:49:59;;;;;;;1.73;1.40;;;;;;;;;;5135899;27;20267;-84
2022/10/24 14:52:35;;;;;;;1.63;1.00;;;;;;;;;;5135103;28;20237;-85
2022/10/24 14:55:06;;;;;;;2.35;1.48;;;;;;;;;;5135482;28;20190;-84
2022/10/24 14:57:35;;;;;;;1.20;0.90;;;;;;;;;;5135431;28;20278;-84
2022/10/24 15:00:07;;;;;;;1.70;0.75;;;;;;;;;;5135347;28;20274;-84
2022/10/24 15:02:37;;;;;;;1.15;1.05;;;;;;;;;;5135718;27;20264;-84
2022/10/24 15:05:31;;;;;;;1.05;1.02;;;;;;;;;;5135674;28;20217;-85
2022/10/24 15:08:23;;;;;;;1.65;1.00;;;;;;;;;;5135324;28;20305;-85
2022/10/24 15:11:15;;;;;;;1.27;1.20;;;;;;;;;;5135471;27;20311;-84
2022/10/24 15:13:49;;;;;;;4.93;1.10;;;;;;;;;;5139715;27;20609;-84
2022/10/24 15:16:28;;;;;;;1.77;0.90;;;;;;;;;;5139433;27;20261;-85
2022/10/24 15:18:57;;;;;;;1.88;1.40;;;;;;;;;;5139238;27;20219;-84
2022/10/24 15:21:28;;;;;;;1.52;1.02;;;;;;;;;;5138968;27;20626;-85
2022/10/24 15:23:59;;;;;;;3.30;1.20;;;;;;;;;;5138677;27;20301;-85
2022/10/24 15:26:33;;;;;;;2.20;0.98;;;;;;;;;;5138967;27;20183;-85
2022/10/24 15:29:15;;;;;;;0.80;0.80;;;;;;;;;;5139279;27;20734;-85